Time;durP1;ratioP1;P1;durP2;ratioP2;P2;SDS_P1;SDS_P2;PMS_P1;PMS_P2;Temp;Humidity;BMP_temperature;BMP_pressure;BME280_temperature;BME280_humidity;BME280_pressure;Samples;Min_cycle;Max_cycle;Signal;HPM_P1;HPM_P2
2024/05/08 00:00:45;;;;;;;7.35;5.03;;;;;;;8.85;94.11;100912.78;5274801;27;20014;-58
2024/05/08 00:03:11;;;;;;;6.35;4.80;;;;;;;8.89;94.57;100925.34;5274405;27;20029;-57
2024/05/08 00:05:36;;;;;;;6.45;5.50;;;;;;;8.80;95.15;100912.34;5274396;27;19998;-57
2024/05/08 00:08:02;;;;;;;5.63;4.90;;;;;;;8.87;95.07;100922.06;5274686;27;20577;-56
2024/05/08 00:10:28;;;;;;;11.52;5.72;;;;;;;6.80;94.95;100599.06;5268715;27;20002;-56
2024/05/08 00:12:53;;;;;;;8.10;6.32;;;;;;;8.75;95.38;100914.53;5275505;27;20017;-57
2024/05/08 00:15:18;;;;;;;9.52;5.70;;;;;;;8.75;95.69;100914.53;5275048;27;20013;-55
2024/05/08 00:17:44;;;;;;;9.30;5.80;;;;;;;8.63;95.08;100905.22;5274815;27;20025;-58
2024/05/08 00:20:09;;;;;;;7.15;5.50;;;;;;;8.74;95.56;100926.66;5274816;26;20085;-57
2024/05/08 00:22:35;;;;;;;11.98;6.28;;;;;;;8.57;95.57;100917.72;5269358;27;20002;-58
2024/05/08 00:25:00;;;;;;;6.57;4.93;;;;;;;8.54;95.12;100911.97;5274659;27;20006;-57
2024/05/08 00:27:25;;;;;;;8.82;4.78;;;;;;;8.39;95.16;100880.44;5264715;27;20006;-57
2024/05/08 00:29:51;;;;;;;9.35;7.15;;;;;;;7.85;95.65;100790.16;5263392;27;20011;-62
2024/05/08 00:32:16;;;;;;;12.05;8.18;;;;;;;8.63;96.27;100915.56;5253260;27;20006;-57
2024/05/08 00:34:41;;;;;;;14.02;9.38;;;;;;;8.74;96.14;100929.25;5272854;27;20007;-58
2024/05/08 00:37:07;;;;;;;15.23;9.05;;;;;;;8.78;96.14;100934.97;5259859;27;20089;-56
2024/05/08 00:39:32;;;;;;;11.27;8.40;;;;;;;8.71;96.28;100919.16;5261793;27;20014;-56
2024/05/08 00:41:57;;;;;;;11.07;7.03;;;;;;;8.80;96.79;100930.47;5270458;27;20006;-57
2024/05/08 00:44:23;;;;;;;12.65;7.80;;;;;;;8.93;96.33;100940.59;5269760;27;20002;-57
2024/05/08 00:46:48;;;;;;;11.55;8.00;;;;;;;8.97;97.08;100944.59;5260122;27;20013;-57
2024/05/08 00:49:16;;;;;;;12.82;8.63;;;;;;;9.01;96.69;100940.78;5264277;27;20002;-56
2024/05/08 00:51:43;;;;;;;17.88;7.40;;;;;;;9.00;97.16;100939.97;5267462;27;20002;-57
2024/05/08 00:54:08;;;;;;;7.20;4.80;;;;;;;8.98;96.92;100941.88;5268847;27;20042;-57
2024/05/08 00:56:35;;;;;;;5.43;3.70;;;;;;;8.92;96.77;100938.97;5269916;27;20093;-57
2024/05/08 00:59:01;;;;;;;9.25;4.75;;;;;;;8.99;96.56;100956.47;5270017;27;20003;-60
2024/05/08 01:01:28;;;;;;;7.88;5.22;;;;;;;8.90;96.51;100931.34;5265588;27;20763;-58
2024/05/08 01:03:53;;;;;;;11.32;7.03;;;;;;;9.10;97.21;100938.22;5269201;27;20003;-56
2024/05/08 01:06:19;;;;;;;12.65;7.18;;;;;;;9.00;97.32;100919.25;5265210;27;20002;-58
2024/05/08 01:08:47;;;;;;;11.40;8.23;;;;;;;8.99;97.08;100921.97;5263882;27;20021;-56
2024/05/08 01:11:12;;;;;;;12.45;8.30;;;;;;;9.14;97.03;100944.78;5269834;27;20017;-57
2024/05/08 01:13:37;;;;;;;17.15;10.30;;;;;;;9.15;96.77;100953.38;5265265;27;20010;-57
2024/05/08 01:16:03;;;;;;;12.95;8.38;;;;;;;9.21;97.22;100947.63;5246531;27;20018;-56
2024/05/08 01:18:31;;;;;;;13.82;9.23;;;;;;;9.19;97.33;100945.19;5274098;27;20010;-56
2024/05/08 01:20:56;;;;;;;8.25;5.90;;;;;;;9.17;97.18;100941.09;5264418;27;20003;-56
2024/05/08 01:23:26;;;;;;;9.70;6.57;;;;;;;9.12;97.40;100941.50;5261381;27;20017;-57
2024/05/08 01:25:56;;;;;;;13.55;9.60;;;;;;;9.12;97.43;100936.31;5264846;27;20018;-59
2024/05/08 01:28:21;;;;;;;11.73;7.72;;;;;;;9.23;97.45;100948.34;5257303;27;20430;-58
2024/05/08 01:30:47;;;;;;;8.68;6.80;;;;;;;9.24;97.00;100947.41;5253417;27;20035;-57
2024/05/08 01:33:12;;;;;;;13.00;8.15;;;;;;;9.09;97.24;100922.81;5245636;27;20010;-59
2024/05/08 01:35:39;;;;;;;13.57;9.10;;;;;;;9.15;96.80;100936.03;5260420;27;20017;-56
2024/05/08 01:38:04;;;;;;;11.93;8.18;;;;;;;9.07;96.87;100946.25;5257856;27;20372;-61
2024/05/08 01:40:30;;;;;;;14.75;9.15;;;;;;;8.99;96.50;100940.91;5270397;27;20073;-56
2024/05/08 01:42:55;;;;;;;13.50;8.55;;;;;;;8.91;96.86;100935.56;5262403;27;20038;-56
2024/05/08 01:45:21;;;;;;;13.18;9.20;;;;;;;8.97;96.88;100960.13;5266204;27;19998;-58
2024/05/08 01:47:50;;;;;;;13.75;8.73;;;;;;;8.83;96.73;100951.78;5267926;27;20003;-59
2024/05/08 01:50:15;;;;;;;15.95;9.88;;;;;;;8.70;96.72;100934.81;5266499;27;20422;-59
2024/05/08 01:52:40;;;;;;;13.77;9.55;;;;;;;8.69;96.14;100943.53;5269264;27;20021;-56
2024/05/08 01:55:06;;;;;;;14.18;8.70;;;;;;;8.64;96.01;100958.63;5263997;27;20007;-56
2024/05/08 01:57:32;;;;;;;13.02;8.45;;;;;;;8.59;95.83;100959.84;5265313;27;20021;-59
2024/05/08 01:59:57;;;;;;;13.77;8.65;;;;;;;8.34;96.31;100924.00;5269232;27;20013;-56
2024/05/08 02:02:22;;;;;;;12.75;8.95;;;;;;;8.35;95.90;100930.81;5270310;27;20018;-56
2024/05/08 02:04:48;;;;;;;11.93;8.35;;;;;;;8.51;96.52;100964.81;5267018;27;20003;-59
2024/05/08 02:07:13;;;;;;;14.05;9.00;;;;;;;8.40;96.58;100951.97;5266397;27;20002;-57
2024/05/08 02:09:38;;;;;;;11.38;7.80;;;;;;;8.19;96.09;100922.69;5266898;27;20002;-56
2024/05/08 02:12:04;;;;;;;13.95;7.75;;;;;;;8.36;96.36;100963.53;5264653;27;20478;-57
2024/05/08 02:14:29;;;;;;;12.45;8.63;;;;;;;8.32;96.61;100966.47;5270248;27;19998;-57
2024/05/08 02:16:54;;;;;;;16.33;9.18;;;;;;;8.27;96.02;100966.81;5264405;27;20022;-58
2024/05/08 02:19:20;;;;;;;13.05;8.85;;;;;;;8.10;96.25;100944.94;5270667;27;20002;-56
2024/05/08 02:21:45;;;;;;;11.68;6.97;;;;;;;8.15;96.04;100968.69;5266178;27;20332;-59
2024/05/08 02:24:10;;;;;;;14.73;9.30;;;;;;;7.77;96.63;100908.91;5269318;27;20066;-55
2024/05/08 02:26:36;;;;;;;16.05;9.73;;;;;;;8.05;96.48;100951.44;5264215;27;20078;-57
2024/05/08 02:29:01;;;;;;;13.52;8.98;;;;;;;8.04;97.06;100960.16;5266829;27;20004;-60
2024/05/08 02:31:27;;;;;;;16.33;10.00;;;;;;;8.09;97.00;100970.94;5268203;27;20486;-56
2024/05/08 02:33:52;;;;;;;17.17;9.93;;;;;;;8.03;97.46;100955.94;5265170;27;20478;-56
2024/05/08 02:36:17;;;;;;;21.02;11.70;;;;;;;8.01;97.02;100945.69;5270689;27;20085;-61
2024/05/08 02:38:43;;;;;;;21.05;11.50;;;;;;;8.07;97.21;100952.13;5269827;27;20010;-56
2024/05/08 02:41:08;;;;;;;19.50;11.35;;;;;;;8.03;98.13;100940.41;5265965;27;20011;-57
2024/05/08 02:43:33;;;;;;;20.70;12.30;;;;;;;8.28;98.33;100974.50;5236170;27;20015;-55
2024/05/08 02:45:59;;;;;;;20.67;12.63;;;;;;;8.35;98.42;100974.00;5243701;27;20007;-58
2024/05/08 02:48:24;;;;;;;27.67;12.70;;;;;;;8.43;98.22;100979.38;5251738;27;20000;-57
2024/05/08 02:50:49;;;;;;;23.67;12.73;;;;;;;8.48;98.37;100979.81;5252440;27;20006;-56
2024/05/08 02:53:15;;;;;;;20.35;12.07;;;;;;;8.51;98.49;100977.78;5252887;27;20010;-57
2024/05/08 02:55:41;;;;;;;26.13;13.70;;;;;;;8.57;98.80;100990.22;5257632;27;20017;-58
2024/05/08 02:58:10;;;;;;;23.63;13.35;;;;;;;8.51;98.79;100961.41;5243055;27;20014;-59
2024/05/08 03:00:35;;;;;;;23.58;12.90;;;;;;;8.68;99.04;100988.47;5240537;27;20434;-56
2024/05/08 03:03:00;;;;;;;23.00;11.40;;;;;;;8.72;98.83;100982.94;5240045;27;20007;-55
2024/05/08 03:05:26;;;;;;;12.98;8.05;;;;;;;8.59;99.05;100949.50;5243422;27;20471;-56
2024/05/08 03:07:51;;;;;;;15.23;8.73;;;;;;;8.66;98.46;100962.72;5244940;27;20352;-61
2024/05/08 03:10:17;;;;;;;18.27;10.63;;;;;;;8.82;98.97;100977.81;5241346;27;20438;-57
2024/05/08 03:12:42;;;;;;;20.90;12.15;;;;;;;8.69;98.34;100961.66;5243077;27;20452;-58
2024/05/08 03:15:08;;;;;;;19.38;11.57;;;;;;;8.89;98.53;100982.31;5242028;27;20012;-56
2024/05/08 03:17:33;;;;;;;24.58;13.05;;;;;;;8.87;98.90;100981.63;5242701;27;20014;-56
2024/05/08 03:19:58;;;;;;;21.60;10.02;;;;;;;8.89;98.18;100984.09;5257503;27;19995;-57
2024/05/08 03:22:24;;;;;;;21.17;12.93;;;;;;;8.94;98.54;100997.47;5246137;27;20002;-57
2024/05/08 03:24:49;;;;;;;18.35;11.43;;;;;;;8.90;98.75;100990.91;5246056;27;19996;-56
2024/05/08 03:27:14;;;;;;;19.58;11.77;;;;;;;8.85;98.66;100978.34;5245607;27;20018;-58
2024/05/08 03:29:40;;;;;;;25.40;13.00;;;;;;;8.77;98.38;100973.00;5243596;27;19999;-56
2024/05/08 03:32:06;;;;;;;17.85;11.13;;;;;;;8.82;98.00;100970.84;5246028;27;20017;-56
2024/05/08 03:34:31;;;;;;;18.73;12.02;;;;;;;9.01;98.60;101008.13;5242532;27;19998;-56
2024/05/08 03:36:56;;;;;;;19.50;11.55;;;;;;;8.94;97.97;100994.88;5256160;27;20006;-60
2024/05/08 03:39:22;;;;;;;21.48;11.10;;;;;;;9.02;97.92;101002.00;5272634;27;20090;-56
2024/05/08 03:41:47;;;;;;;19.73;12.63;;;;;;;9.10;97.65;101012.53;5271701;27;20003;-56
2024/05/08 03:44:14;;;;;;;17.83;10.75;;;;;;;9.05;97.62;101005.13;5273095;27;20077;-56
2024/05/08 03:46:39;;;;;;;19.85;11.27;;;;;;;9.06;97.28;101008.56;5273623;27;20065;-58
2024/05/08 03:49:05;;;;;;;17.50;10.77;;;;;;;9.10;97.07;101008.19;5272773;27;20456;-56
2024/05/08 03:51:30;;;;;;;16.27;9.40;;;;;;;9.16;96.83;101019.78;5273643;27;20688;-56
2024/05/08 03:53:55;;;;;;;17.08;11.27;;;;;;;9.12;96.28;101013.22;5273066;27;19998;-59
2024/05/08 03:56:21;;;;;;;20.52;10.43;;;;;;;9.13;95.96;101017.44;5271276;27;20002;-56
2024/05/08 03:58:46;;;;;;;20.83;10.07;;;;;;;9.18;95.68;101025.66;5268242;27;20009;-57
2024/05/08 04:01:11;;;;;;;13.00;9.18;;;;;;;9.11;95.72;101020.19;5274440;27;20013;-56
2024/05/08 04:03:37;;;;;;;15.35;9.70;;;;;;;8.78;95.72;100958.28;5274635;27;20377;-56
2024/05/08 04:06:07;;;;;;;16.35;9.05;;;;;;;9.06;95.61;101005.97;5273280;27;20017;-58
2024/05/08 04:08:34;;;;;;;14.90;8.98;;;;;;;9.26;95.15;101035.38;5274891;27;20592;-55
2024/05/08 04:10:59;;;;;;;13.35;9.35;;;;;;;9.05;95.37;101004.31;5274173;27;20013;-57
2024/05/08 04:13:25;;;;;;;10.27;7.55;;;;;;;9.27;95.76;101039.59;5274228;27;19994;-56
2024/05/08 04:15:50;;;;;;;11.95;8.10;;;;;;;9.26;95.11;101037.97;5273978;27;20412;-56
2024/05/08 04:18:15;;;;;;;12.15;7.28;;;;;;;9.31;94.80;101049.56;5274247;27;20477;-56
2024/05/08 04:20:41;;;;;;;11.07;7.78;;;;;;;9.33;94.55;101047.66;5274709;27;20467;-57
2024/05/08 04:23:06;;;;;;;11.88;8.13;;;;;;;9.30;94.32;101045.31;5274583;27;20006;-56
2024/05/08 04:25:31;;;;;;;9.95;6.47;;;;;;;9.36;94.00;101055.19;5275309;27;20002;-59
2024/05/08 04:27:57;;;;;;;10.00;6.13;;;;;;;9.34;93.85;101059.66;5264544;27;20439;-55
2024/05/08 04:30:24;;;;;;;11.25;7.20;;;;;;;9.39;93.30;101064.47;5267480;27;20486;-56
2024/05/08 04:32:50;;;;;;;9.07;6.13;;;;;;;9.35;93.49;101058.75;5254496;27;20521;-57
2024/05/08 04:35:16;;;;;;;14.50;7.30;;;;;;;9.04;92.68;100998.31;5246974;27;20010;-58
2024/05/08 04:37:41;;;;;;;9.88;6.18;;;;;;;9.49;92.97;101067.91;5249996;27;20014;-55
2024/05/08 04:40:11;;;;;;;10.45;6.18;;;;;;;9.46;92.01;101058.59;5234958;27;20014;-56
2024/05/08 04:42:37;;;;;;;8.32;5.50;;;;;;;9.56;92.56;101075.97;5246173;27;20002;-57
2024/05/08 04:45:02;;;;;;;6.65;5.20;;;;;;;9.41;92.02;101053.00;5275238;27;20084;-60
2024/05/08 04:47:28;;;;;;;7.18;4.90;;;;;;;9.30;92.07;101034.16;5275224;27;20014;-57
2024/05/08 04:49:53;;;;;;;8.05;6.18;;;;;;;9.47;91.64;101059.44;5273508;27;20014;-60
2024/05/08 04:52:18;;;;;;;9.07;5.82;;;;;;;9.59;92.15;101079.13;5274849;27;20006;-60
2024/05/08 04:54:44;;;;;;;8.02;5.22;;;;;;;9.70;90.58;101101.53;5274430;27;20012;-58
2024/05/08 04:57:09;;;;;;;7.13;4.97;;;;;;;9.64;90.41;101082.16;5263626;27;20018;-58
2024/05/08 04:59:34;;;;;;;7.18;4.78;;;;;;;9.66;90.17;101090.63;5274837;27;20010;-56
2024/05/08 05:02:00;;;;;;;6.63;4.40;;;;;;;9.77;89.94;101100.88;5271848;27;20014;-57
2024/05/08 05:04:25;;;;;;;6.32;4.53;;;;;;;9.72;89.83;101090.06;5273529;27;20077;-59
2024/05/08 05:06:50;;;;;;;6.40;3.80;;;;;;;9.72;89.23;101089.25;5260923;27;20019;-57
2024/05/08 05:09:15;;;;;;;7.10;4.65;;;;;;;9.89;88.95;101111.16;5259389;27;20017;-55
2024/05/08 05:11:41;;;;;;;5.65;4.22;;;;;;;9.84;88.11;101095.97;5273336;27;20017;-55
2024/05/08 05:14:06;;;;;;;8.52;4.70;;;;;;;9.85;88.45;101096.78;5271416;27;20002;-57
2024/05/08 05:16:31;;;;;;;12.68;4.43;;;;;;;9.93;88.24;101108.16;5251440;27;20059;-59
2024/05/08 05:18:57;;;;;;;6.50;4.68;;;;;;;9.99;87.31;101112.78;5253646;27;20014;-56
2024/05/08 05:21:22;;;;;;;5.88;3.97;;;;;;;10.01;87.83;101112.66;5274344;27;20002;-59
2024/05/08 05:23:48;;;;;;;6.13;3.95;;;;;;;9.98;88.01;101105.97;5273396;27;20039;-58
2024/05/08 05:26:13;;;;;;;5.13;4.07;;;;;;;10.13;88.04;101113.34;5271886;27;20006;-55
2024/05/08 05:28:38;;;;;;;6.90;4.63;;;;;;;10.08;87.42;101095.59;5265510;27;20014;-57
2024/05/08 05:33:48;;;;;;;4.95;3.85;;;;;;;10.26;86.69;101127.75;5273570;27;20475;-55
2024/05/08 05:36:15;;;;;;;4.07;3.42;;;;;;;8.39;85.90;100805.41;5274211;27;20016;-57
2024/05/08 05:38:40;;;;;;;5.05;3.50;;;;;;;10.30;86.39;101103.16;5269065;27;20002;-56
2024/05/08 05:41:05;;;;;;;4.88;3.83;;;;;;;10.45;86.49;101123.53;5272798;27;20331;-55
2024/05/08 05:46:19;;;;;;;5.88;4.53;;;;;;;9.65;85.63;101003.41;5274446;27;20006;-56
2024/05/08 05:48:44;;;;;;;6.07;4.13;;;;;;;10.16;84.92;101087.97;5273982;27;20018;-56
2024/05/08 05:51:10;;;;;;;4.60;3.58;;;;;;;10.47;84.96;101134.59;5273134;27;20017;-56
2024/05/08 05:53:35;;;;;;;6.50;4.85;;;;;;;10.41;84.89;101161.91;5274845;27;20427;-57
2024/05/08 05:56:01;;;;;;;9.27;3.92;;;;;;;10.22;84.03;101097.81;5274053;27;20732;-53
2024/05/08 05:58:26;;;;;;;4.82;3.65;;;;;;;10.33;84.41;101117.66;5263773;27;20459;-56
2024/05/08 06:00:51;;;;;;;5.00;3.70;;;;;;;10.49;85.18;101143.06;5274091;27;20003;-59
2024/05/08 06:03:16;;;;;;;4.82;4.18;;;;;;;10.53;85.10;101153.03;5260254;27;20013;-55
2024/05/08 06:05:42;;;;;;;7.68;4.28;;;;;;;10.55;84.48;101147.69;5273529;27;20010;-56
2024/05/08 06:08:09;;;;;;;6.07;3.78;;;;;;;10.58;85.30;101148.25;5259377;27;20022;-55
2024/05/08 06:10:34;;;;;;;4.40;3.28;;;;;;;10.45;85.17;101120.94;5260542;27;20017;-59
2024/05/08 06:13:03;;;;;;;5.18;4.00;;;;;;;10.68;84.39;101158.63;5247178;27;20525;-56
2024/05/08 06:15:28;;;;;;;5.28;3.25;;;;;;;10.61;84.02;101140.19;5248876;27;20006;-56
2024/05/08 06:17:54;;;;;;;7.03;4.38;;;;;;;10.81;83.85;101164.38;5273589;27;20562;-59
2024/05/08 06:20:19;;;;;;;5.75;3.75;;;;;;;10.83;83.55;101162.47;5268906;27;20003;-56
2024/05/08 06:22:44;;;;;;;6.53;3.85;;;;;;;10.77;82.89;101147.41;5273866;27;20013;-56
2024/05/08 06:25:10;;;;;;;6.85;3.92;;;;;;;10.81;83.12;101151.38;5264628;27;20011;-56
2024/05/08 06:27:35;;;;;;;8.13;4.25;;;;;;;10.98;82.50;101175.03;5263620;27;20014;-59
2024/05/08 06:30:00;;;;;;;5.80;3.72;;;;;;;10.94;82.72;101170.09;5272598;27;20014;-56
2024/05/08 06:32:27;;;;;;;5.55;3.70;;;;;;;10.93;82.24;101168.47;5273718;27;20006;-57
2024/05/08 06:34:52;;;;;;;4.82;3.35;;;;;;;11.02;82.04;101179.81;5269647;27;20025;-56
2024/05/08 06:37:18;;;;;;;5.57;3.47;;;;;;;11.07;82.07;101181.97;5273568;27;20471;-58
2024/05/08 06:39:43;;;;;;;3.88;3.17;;;;;;;11.02;81.49;101173.78;5273841;27;20079;-58
2024/05/08 06:42:08;;;;;;;7.25;4.20;;;;;;;11.11;80.77;101188.56;5271579;27;20006;-56
2024/05/08 06:44:34;;;;;;;3.65;2.83;;;;;;;11.11;81.81;101181.59;5264548;27;20006;-57
2024/05/08 06:46:59;;;;;;;5.85;3.13;;;;;;;11.17;81.28;101169.78;5264424;27;20075;-56
2024/05/08 06:49:24;;;;;;;5.95;3.92;;;;;;;11.31;81.24;101187.53;5273789;27;20006;-59
2024/05/08 06:51:50;;;;;;;6.20;3.88;;;;;;;11.01;80.98;101121.00;5273494;27;20017;-55
2024/05/08 06:54:15;;;;;;;6.07;3.78;;;;;;;11.39;80.66;101179.06;5276315;27;20007;-56
2024/05/08 06:56:40;;;;;;;5.05;3.33;;;;;;;11.53;80.04;101187.22;5278343;27;20043;-60
2024/05/08 06:59:06;;;;;;;6.88;3.78;;;;;;;11.52;80.29;101177.78;5273687;27;20013;-55
2024/05/08 07:01:31;;;;;;;4.70;3.05;;;;;;;11.70;79.67;101198.66;5275843;27;20010;-56
2024/05/08 07:03:56;;;;;;;4.55;3.05;;;;;;;11.82;79.29;101191.50;5275665;27;20024;-57
2024/05/08 07:06:22;;;;;;;4.88;2.95;;;;;;;11.80;78.75;101178.66;5276116;27;20418;-56
2024/05/08 07:08:47;;;;;;;5.88;3.30;;;;;;;11.94;78.25;101173.91;5276322;27;20474;-60
2024/05/08 07:11:12;;;;;;;4.32;2.72;;;;;;;12.12;77.28;101188.59;5267467;27;20478;-58
2024/05/08 07:13:38;;;;;;;3.78;2.90;;;;;;;12.21;77.25;101199.13;5275902;27;20014;-57
2024/05/08 07:16:04;;;;;;;6.18;3.08;;;;;;;12.31;76.95;101187.69;5275822;27;20825;-57
2024/05/08 07:18:29;;;;;;;5.72;2.95;;;;;;;12.22;76.14;101149.50;5275143;27;20014;-56
2024/05/08 07:20:54;;;;;;;5.72;2.90;;;;;;;12.73;75.70;101197.50;5272195;27;20080;-58
2024/05/08 07:23:20;;;;;;;3.78;3.05;;;;;;;12.85;75.00;101200.72;5276107;27;20002;-56
2024/05/08 07:25:47;;;;;;;4.13;2.72;;;;;;;12.90;74.27;101193.25;5276244;27;20003;-56
2024/05/08 07:28:14;;;;;;;6.72;2.90;;;;;;;13.06;74.14;101198.56;5275791;27;20018;-59
2024/05/08 07:30:40;;;;;;;4.68;3.13;;;;;;;13.16;74.20;101196.69;5276087;27;20025;-57
2024/05/08 07:33:05;;;;;;;3.75;2.67;;;;;;;13.43;74.20;101190.53;5274800;27;20014;-60
2024/05/08 07:35:30;;;;;;;3.75;2.88;;;;;;;13.69;72.77;101202.75;5276102;27;20079;-55
2024/05/08 07:37:56;;;;;;;4.18;3.15;;;;;;;13.73;71.95;101191.00;5271692;27;20010;-57
2024/05/08 07:40:22;;;;;;;4.03;2.83;;;;;;;13.85;71.02;101200.19;5276044;27;20425;-57
2024/05/08 07:42:47;;;;;;;5.22;2.75;;;;;;;13.77;70.52;101171.47;5274424;27;20002;-57
2024/05/08 07:45:13;;;;;;;6.00;3.55;;;;;;;14.02;70.19;101194.06;5275506;27;20015;-57
2024/05/08 07:47:38;;;;;;;5.32;3.40;;;;;;;13.94;69.34;101159.28;5276194;27;20013;-56
2024/05/08 07:50:04;;;;;;;5.82;3.25;;;;;;;14.34;69.06;101197.75;5275279;27;20016;-57
2024/05/08 07:52:30;;;;;;;4.72;2.97;;;;;;;14.69;68.13;101213.19;5275577;27;20311;-57
2024/05/08 07:54:55;;;;;;;4.68;3.25;;;;;;;14.73;67.82;101201.41;5274659;27;20085;-56
2024/05/08 07:57:20;;;;;;;5.47;3.13;;;;;;;15.08;67.35;101209.88;5265495;27;20050;-56
2024/05/08 07:59:46;;;;;;;4.25;3.00;;;;;;;15.21;66.07;101196.31;5266712;27;20013;-57
2024/05/08 08:02:11;;;;;;;3.95;3.00;;;;;;;15.41;64.44;101212.47;5276020;27;20021;-56
2024/05/08 08:04:36;;;;;;;4.95;3.30;;;;;;;15.43;64.77;101210.50;5265605;27;20006;-59
2024/05/08 08:07:02;;;;;;;4.38;3.17;;;;;;;15.54;64.18;101210.16;5275757;27;20006;-60
2024/05/08 08:09:27;;;;;;;7.68;3.38;;;;;;;15.48;64.22;101190.69;5276326;27;20002;-56
2024/05/08 08:11:52;;;;;;;5.65;3.58;;;;;;;15.66;63.37;101209.66;5275418;27;20081;-57
2024/05/08 08:14:18;;;;;;;4.68;3.10;;;;;;;15.89;62.75;101198.41;5274616;27;20006;-58
2024/05/08 08:16:43;;;;;;;5.80;4.20;;;;;;;16.06;61.16;101202.63;5274944;27;20006;-57
2024/05/08 08:19:08;;;;;;;6.45;3.20;;;;;;;15.87;62.40;101210.88;5275097;27;20359;-57
2024/05/08 08:21:34;;;;;;;10.77;4.18;;;;;;;15.29;62.03;101170.13;5275406;27;20026;-58
2024/05/08 08:23:59;;;;;;;6.35;3.25;;;;;;;15.55;63.13;101217.03;5275110;27;20017;-56
2024/05/08 08:26:24;;;;;;;4.80;3.15;;;;;;;15.72;63.20;101202.91;5273380;27;20006;-59
2024/05/08 08:28:50;;;;;;;4.15;2.60;;;;;;;16.35;62.56;101209.00;5275722;27;20018;-56
2024/05/08 08:31:15;;;;;;;4.68;2.92;;;;;;;16.88;61.01;101199.47;5275191;27;20010;-63
2024/05/08 08:33:40;;;;;;;4.72;3.15;;;;;;;17.27;60.17;101210.59;5275503;27;20010;-57
2024/05/08 08:36:06;;;;;;;5.03;3.75;;;;;;;17.45;58.41;101210.25;5275186;27;20013;-56
2024/05/08 08:38:33;;;;;;;4.85;3.22;;;;;;;17.37;58.08;101212.97;5262056;27;20081;-58
2024/05/08 08:41:06;;;;;;;5.10;2.58;;;;;;;17.19;59.14;101207.22;5268709;27;20042;-58
2024/05/08 08:43:35;;;;;;;5.22;3.53;;;;;;;16.88;57.79;101216.03;5253727;27;20009;-59
2024/05/08 08:46:03;;;;;;;6.80;4.65;;;;;;;16.48;57.81;101206.63;5267895;27;20713;-56
2024/05/08 08:48:28;;;;;;;6.78;4.75;;;;;;;16.27;58.04;101208.06;5266533;27;20483;-57
2024/05/08 08:50:55;;;;;;;7.95;5.07;;;;;;;15.98;56.75;101170.41;5264682;27;20006;-59
2024/05/08 08:53:21;;;;;;;7.22;4.28;;;;;;;16.14;57.04;101213.03;5257014;27;20010;-58
2024/05/08 08:55:47;;;;;;;7.53;5.43;;;;;;;16.00;58.09;101211.16;5244008;27;20096;-57
2024/05/08 08:58:15;;;;;;;5.88;4.50;;;;;;;15.91;59.45;101210.38;5256335;27;20018;-58
2024/05/08 09:00:42;;;;;;;8.05;5.25;;;;;;;16.01;59.18;101212.78;5247226;27;20003;-59
2024/05/08 09:03:14;;;;;;;5.65;4.28;;;;;;;16.17;58.15;101215.34;5250192;27;20484;-58
2024/05/08 09:05:41;;;;;;;5.15;3.75;;;;;;;16.50;57.64;101202.03;5249497;27;20003;-58
2024/05/08 09:08:08;;;;;;;7.05;4.70;;;;;;;17.08;55.54;101193.53;5248080;27;20015;-54
2024/05/08 09:10:33;;;;;;;5.57;4.45;;;;;;;17.48;52.29;101216.94;5254046;27;20003;-58
2024/05/08 09:12:59;;;;;;;5.15;3.67;;;;;;;17.94;52.26;101217.59;5257972;27;20017;-63
2024/05/08 09:15:27;;;;;;;5.45;4.25;;;;;;;18.50;49.79;101221.25;5254045;27;20010;-54
2024/05/08 09:17:53;;;;;;;6.05;4.22;;;;;;;18.97;49.18;101219.88;5247288;27;20007;-57
2024/05/08 09:20:19;;;;;;;6.60;4.35;;;;;;;18.96;47.45;101206.88;5249825;27;20017;-56
2024/05/08 09:22:44;;;;;;;5.15;4.20;;;;;;;19.17;48.24;101207.66;5248372;27;20007;-62
2024/05/08 09:25:10;;;;;;;6.78;4.55;;;;;;;19.55;46.74;101220.50;5250131;27;20002;-62
2024/05/08 09:27:39;;;;;;;5.05;3.85;;;;;;;19.71;46.55;101183.28;5249824;27;20010;-57
2024/05/08 09:30:11;;;;;;;5.85;4.13;;;;;;;20.27;45.31;101227.06;5263978;27;19998;-57
2024/05/08 09:32:36;;;;;;;5.82;3.90;;;;;;;20.24;43.10;101222.22;5273855;27;20003;-57
2024/05/08 09:35:06;;;;;;;5.43;3.90;;;;;;;19.84;45.01;101190.44;5272767;27;20080;-58
2024/05/08 09:37:39;;;;;;;6.45;4.53;;;;;;;19.70;44.11;101121.06;5429738;26;20322;-54
2024/05/08 09:40:13;;;;;;;5.63;4.47;;;;;;;20.34;45.14;101218.19;5363668;26;19997;-56
2024/05/08 09:42:42;;;;;;;6.25;3.35;;;;;;;20.63;44.68;101219.69;5359648;26;20000;-55
2024/05/08 09:45:08;;;;;;;5.70;3.72;;;;;;;20.66;44.72;101223.72;5359005;26;20005;-54
2024/05/08 09:47:46;;;;;;;4.40;3.75;;;;;;;20.56;42.76;101210.94;5359221;26;20006;-53
2024/05/08 09:50:14;;;;;;;3.25;2.88;;;;;;;20.83;43.65;101232.91;5359785;26;20005;-55
2024/05/08 09:52:42;;;;;;;5.15;2.90;;;;;;;21.03;43.12;101227.63;5360388;26;20473;-56
2024/05/08 09:55:09;;;;;;;5.07;3.25;;;;;;;21.12;42.88;101215.03;5363608;26;20004;-56
2024/05/08 09:57:38;;;;;;;5.07;3.30;;;;;;;21.28;41.85;101214.63;5361007;26;20070;-54
2024/05/08 10:00:06;;;;;;;4.43;3.03;;;;;;;21.58;41.79;101219.41;5360167;26;20678;-55
2024/05/08 10:02:34;;;;;;;4.35;3.22;;;;;;;21.76;41.03;101216.91;5360542;26;20000;-55
2024/05/08 10:05:00;;;;;;;4.43;2.90;;;;;;;21.84;41.11;101224.63;5360604;26;20008;-57
2024/05/08 10:07:27;;;;;;;3.22;2.60;;;;;;;21.61;41.75;101226.94;5359797;26;20000;-57
2024/05/08 10:09:56;;;;;;;2.85;2.47;;;;;;;21.19;40.90;101210.53;5358641;26;20078;-54
2024/05/08 10:12:21;;;;;;;3.20;2.65;;;;;;;21.13;42.13;101221.94;5359516;26;20019;-56
2024/05/08 10:14:47;;;;;;;4.15;2.78;;;;;;;21.04;41.21;101218.66;5349212;26;20005;-55
2024/05/08 10:17:20;;;;;;;4.03;3.45;;;;;;;20.30;41.85;101222.25;5349194;26;20089;-59
2024/05/08 10:19:47;;;;;;;2.92;2.40;;;;;;;19.74;44.05;101240.06;5349399;26;20020;-55
2024/05/08 10:22:33;;;;;;;3.83;2.97;;;;;;;19.58;44.88;101227.19;5350292;26;20015;-55
2024/05/08 10:25:16;;;;;;;2.90;2.33;;;;;;;19.72;44.60;101234.16;5351484;26;20004;-56
2024/05/08 10:27:43;;;;;;;4.38;2.80;;;;;;;19.78;44.11;101241.31;5351770;26;19997;-56
2024/05/08 10:30:11;;;;;;;2.83;2.30;;;;;;;19.62;45.46;101226.59;5349127;26;19997;-54
2024/05/08 10:32:37;;;;;;;4.55;3.35;;;;;;;19.33;44.64;101239.97;5349402;26;20009;-55
2024/05/08 10:35:02;;;;;;;4.03;3.00;;;;;;;18.75;46.71;101234.06;5356136;26;20023;-55
2024/05/08 10:37:28;;;;;;;5.22;3.60;;;;;;;18.01;48.06;101207.97;5355834;26;20384;-56
2024/05/08 10:39:56;;;;;;;4.95;3.75;;;;;;;17.57;49.55;101226.38;5357777;26;20348;-55
2024/05/08 10:42:22;;;;;;;5.15;3.83;;;;;;;17.08;51.03;101218.97;5357371;26;20019;-58
2024/05/08 10:44:47;;;;;;;4.57;3.83;;;;;;;16.59;53.36;101171.31;5357572;26;20000;-57
2024/05/08 10:47:13;;;;;;;5.57;4.00;;;;;;;16.52;53.06;101190.38;5355167;26;20082;-55
2024/05/08 10:49:52;;;;;;;5.97;4.10;;;;;;;16.61;53.63;101240.94;5344285;26;20016;-55
2024/05/08 10:52:20;;;;;;;7.40;5.32;;;;;;;16.59;54.48;101236.88;5344641;26;20352;-55
2024/05/08 10:54:49;;;;;;;5.00;3.90;;;;;;;16.80;54.25;101240.50;5343305;26;20009;-56
2024/05/08 10:57:14;;;;;;;4.63;3.63;;;;;;;16.88;52.96;101247.50;5343719;26;19997;-55
2024/05/08 10:59:54;;;;;;;7.53;4.15;;;;;;;16.81;53.73;101241.31;5343991;26;20005;-58
2024/05/08 11:02:24;;;;;;;5.97;3.97;;;;;;;16.46;53.70;101195.50;5336936;26;20037;-56
2024/05/08 11:05:06;;;;;;;5.10;3.42;;;;;;;16.71;53.82;101240.75;5343579;26;20017;-55
2024/05/08 11:07:44;;;;;;;5.35;3.90;;;;;;;16.67;53.88;101239.44;5337648;26;19997;-55
2024/05/08 11:10:10;;;;;;;4.72;3.03;;;;;;;16.61;54.80;101250.63;5343172;26;20012;-55
2024/05/08 11:12:36;;;;;;;5.57;3.75;;;;;;;16.39;55.26;101198.00;5342274;26;20001;-55
2024/05/08 11:15:06;;;;;;;5.43;3.33;;;;;;;16.72;55.74;101251.06;5340614;26;20135;-58
2024/05/08 11:17:32;;;;;;;6.18;4.03;;;;;;;16.52;54.56;101211.34;5342934;26;20078;-58
2024/05/08 11:19:57;;;;;;;5.38;4.30;;;;;;;16.66;54.76;101237.81;5334082;26;20012;-61
2024/05/08 11:22:22;;;;;;;5.32;3.65;;;;;;;16.61;54.74;101245.38;5337852;26;20024;-62
2024/05/08 11:24:48;;;;;;;4.60;3.30;;;;;;;16.32;54.50;101199.69;5336669;26;20008;-56